Time;durP1;ratioP1;P1;durP2;ratioP2;P2;SDS_P1;SDS_P2;PMS_P1;PMS_P2;Temp;Humidity;BMP_temperature;BMP_pressure;BME280_temperature;BME280_humidity;BME280_pressure;Samples;Min_cycle;Max_cycle;Signal;HPM_P1;HPM_P2
2022/04/25 00:00:55;;;;;;;62.95;31.67;;;;;;;;;;5029427;28;20046;-82
2022/04/25 00:03:21;;;;;;;77.78;35.30;;;;;;;;;;5013964;28;20123;-84
2022/04/25 00:05:47;;;;;;;71.15;30.63;;;;;;;;;;5031172;28;20052;-81
2022/04/25 00:08:13;;;;;;;77.47;35.67;;;;;;;;;;5010202;28;20041;-82
2022/04/25 00:10:38;;;;;;;70.85;32.55;;;;;;;;;;4996780;28;20517;-82
2022/04/25 00:13:04;;;;;;;69.82;34.17;;;;;;;;;;5030265;28;20068;-81
2022/04/25 00:15:30;;;;;;;64.07;30.63;;;;;;;;;;5031923;28;20050;-83
2022/04/25 00:17:56;;;;;;;59.03;28.40;;;;;;;;;;5025519;28;20057;-82
2022/04/25 00:20:22;;;;;;;65.10;30.98;;;;;;;;;;5017000;28;20489;-81
2022/04/25 00:22:48;;;;;;;63.67;32.63;;;;;;;;;;5006514;28;20084;-82
2022/04/25 00:25:14;;;;;;;63.45;33.45;;;;;;;;;;5026877;28;20510;-82
2022/04/25 00:27:40;;;;;;;59.38;31.45;;;;;;;;;;5028410;28;20053;-82
2022/04/25 00:30:06;;;;;;;59.83;32.28;;;;;;;;;;5020206;28;20048;-80
2022/04/25 00:32:32;;;;;;;58.13;31.45;;;;;;;;;;5005200;28;20236;-82
2022/04/25 00:34:58;;;;;;;48.72;30.30;;;;;;;;;;5015497;28;20038;-81
2022/04/25 00:37:23;;;;;;;55.25;32.10;;;;;;;;;;5029706;28;20053;-83
2022/04/25 00:39:49;;;;;;;47.65;30.17;;;;;;;;;;5011450;28;20037;-81
2022/04/25 00:42:16;;;;;;;47.08;27.80;;;;;;;;;;5022968;28;20517;-81
2022/04/25 00:44:42;;;;;;;51.83;30.48;;;;;;;;;;5023792;28;20038;-82
2022/04/25 00:47:08;;;;;;;51.92;30.02;;;;;;;;;;5019021;28;20042;-82
2022/04/25 00:49:34;;;;;;;58.95;32.08;;;;;;;;;;5018837;28;20044;-82
2022/04/25 00:52:00;;;;;;;59.22;32.67;;;;;;;;;;5024847;28;20541;-80
2022/04/25 00:54:26;;;;;;;55.53;31.20;;;;;;;;;;5022456;28;20511;-82
2022/04/25 00:56:52;;;;;;;53.45;29.02;;;;;;;;;;5024833;28;20120;-82
2022/04/25 00:59:18;;;;;;;49.75;29.58;;;;;;;;;;5007131;28;20041;-81
2022/04/25 01:01:45;;;;;;;54.28;29.80;;;;;;;;;;5022292;28;20046;-81
2022/04/25 01:04:11;;;;;;;53.33;29.38;;;;;;;;;;5018743;28;20045;-83
2022/04/25 01:06:37;;;;;;;47.58;27.92;;;;;;;;;;5014731;28;20058;-87
2022/04/25 01:09:03;;;;;;;51.85;29.65;;;;;;;;;;5027052;28;20410;-82
2022/04/25 01:11:29;;;;;;;56.63;29.80;;;;;;;;;;5012752;28;20038;-81
2022/04/25 01:13:55;;;;;;;51.38;30.20;;;;;;;;;;5011888;28;20046;-80
2022/04/25 01:16:21;;;;;;;60.13;29.80;;;;;;;;;;4995020;28;20418;-82
2022/04/25 01:18:47;;;;;;;54.25;29.63;;;;;;;;;;5012712;28;20117;-82
2022/04/25 01:21:13;;;;;;;48.10;30.05;;;;;;;;;;4996281;28;20078;-81
2022/04/25 01:29:08;;;;;;;52.75;28.95;;;;;;;;;;5010045;28;20518;-79
2022/04/25 01:31:34;;;;;;;50.08;27.60;;;;;;;;;;5009803;28;20069;-79
2022/04/25 01:34:00;;;;;;;54.63;30.20;;;;;;;;;;5008493;28;20046;-78
2022/04/25 01:36:26;;;;;;;48.42;28.73;;;;;;;;;;5009376;28;20045;-80
2022/04/25 01:38:52;;;;;;;53.58;28.45;;;;;;;;;;4993176;28;20131;-81
2022/04/25 01:41:18;;;;;;;44.53;25.60;;;;;;;;;;4993032;28;20509;-80
2022/04/25 01:43:44;;;;;;;45.72;27.27;;;;;;;;;;5010236;28;20092;-80
2022/04/25 01:46:10;;;;;;;43.58;25.77;;;;;;;;;;4992032;28;20053;-79
2022/04/25 01:48:36;;;;;;;44.85;27.52;;;;;;;;;;5009576;28;20534;-80
2022/04/25 01:51:02;;;;;;;44.63;27.60;;;;;;;;;;4976044;28;20129;-79
2022/04/25 01:53:29;;;;;;;38.70;24.08;;;;;;;;;;4976137;28;20034;-80
2022/04/25 01:55:55;;;;;;;33.55;22.05;;;;;;;;;;5009942;28;20529;-79
2022/04/25 01:58:21;;;;;;;34.33;22.92;;;;;;;;;;4991349;28;20041;-78
2022/04/25 02:00:47;;;;;;;30.40;21.55;;;;;;;;;;5010089;28;20525;-80
2022/04/25 02:03:13;;;;;;;29.13;19.92;;;;;;;;;;5009863;28;20117;-80
2022/04/25 02:05:39;;;;;;;24.13;19.05;;;;;;;;;;5013564;28;20092;-78
2022/04/25 02:08:05;;;;;;;26.35;19.25;;;;;;;;;;5009426;28;20065;-80
2022/04/25 02:10:31;;;;;;;24.40;17.10;;;;;;;;;;5010202;28;20038;-80
2022/04/25 02:12:57;;;;;;;24.88;19.63;;;;;;;;;;4994004;28;20153;-81
2022/04/25 02:15:23;;;;;;;27.40;18.25;;;;;;;;;;5014733;28;20050;-81
2022/04/25 02:17:49;;;;;;;22.45;17.98;;;;;;;;;;5011585;28;20081;-81
2022/04/25 02:20:15;;;;;;;23.02;17.35;;;;;;;;;;4993034;28;20603;-82
2022/04/25 02:22:41;;;;;;;22.83;17.60;;;;;;;;;;5009404;28;20045;-81
2022/04/25 02:25:07;;;;;;;25.25;18.45;;;;;;;;;;5009412;28;20068;-74
2022/04/25 02:27:33;;;;;;;25.48;19.23;;;;;;;;;;5008066;28;20053;-79
2022/04/25 02:29:59;;;;;;;26.75;18.23;;;;;;;;;;4991911;28;20042;-78
2022/04/25 02:32:27;;;;;;;27.25;18.33;;;;;;;;;;5007914;28;20112;-77
2022/04/25 02:34:54;;;;;;;28.33;19.38;;;;;;;;;;5009358;28;20493;-73
2022/04/25 02:37:20;;;;;;;25.88;18.40;;;;;;;;;;5008257;28;20525;-73
2022/04/25 02:39:46;;;;;;;26.90;19.27;;;;;;;;;;4971967;28;20034;-76
2022/04/25 02:42:12;;;;;;;28.35;19.67;;;;;;;;;;4955658;28;20132;-75
2022/04/25 02:44:38;;;;;;;25.10;19.20;;;;;;;;;;4955934;28;20130;-76
2022/04/25 02:47:04;;;;;;;24.98;18.58;;;;;;;;;;4988279;28;20531;-77
2022/04/25 02:49:30;;;;;;;27.15;19.67;;;;;;;;;;4959475;28;20101;-78
2022/04/25 02:51:56;;;;;;;28.33;18.23;;;;;;;;;;4975325;28;20153;-76
2022/04/25 02:54:22;;;;;;;23.52;18.25;;;;;;;;;;4992969;28;20080;-78
2022/04/25 02:56:50;;;;;;;22.73;18.15;;;;;;;;;;4992811;28;20073;-77
2022/04/25 02:59:16;;;;;;;27.55;19.45;;;;;;;;;;4993245;28;20065;-77
2022/04/25 03:01:41;;;;;;;26.80;19.23;;;;;;;;;;4992715;28;20088;-77
2022/04/25 03:04:08;;;;;;;30.60;19.77;;;;;;;;;;4992817;28;20042;-76
2022/04/25 03:06:34;;;;;;;27.67;21.23;;;;;;;;;;5009767;28;20056;-76
2022/04/25 03:09:00;;;;;;;27.90;19.30;;;;;;;;;;4994755;28;20045;-77
2022/04/25 03:11:26;;;;;;;30.40;19.65;;;;;;;;;;4978347;28;20192;-76
2022/04/25 03:13:55;;;;;;;27.52;18.83;;;;;;;;;;4994650;28;20128;-76
2022/04/25 03:16:22;;;;;;;25.05;18.20;;;;;;;;;;4990872;28;20062;-77
2022/04/25 03:18:48;;;;;;;27.90;17.95;;;;;;;;;;4994075;28;20517;-77
2022/04/25 03:21:14;;;;;;;21.92;17.30;;;;;;;;;;5011735;28;20049;-79
2022/04/25 03:23:39;;;;;;;19.52;16.77;;;;;;;;;;5011610;28;20045;-77
2022/04/25 03:26:05;;;;;;;22.45;18.08;;;;;;;;;;5010332;28;20060;-77
2022/04/25 03:28:31;;;;;;;17.38;15.00;;;;;;;;;;4978321;28;20041;-77
2022/04/25 03:30:58;;;;;;;23.15;17.27;;;;;;;;;;5011981;28;20514;-77
2022/04/25 03:33:24;;;;;;;17.90;15.27;;;;;;;;;;4993974;28;20525;-76
2022/04/25 03:35:50;;;;;;;16.90;14.43;;;;;;;;;;5012037;28;20425;-77
2022/04/25 03:38:18;;;;;;;17.67;15.45;;;;;;;;;;5011406;28;20042;-77
2022/04/25 03:40:44;;;;;;;14.77;13.15;;;;;;;;;;5011633;28;20073;-76
2022/04/25 03:43:09;;;;;;;15.18;13.80;;;;;;;;;;5010141;28;20080;-77
2022/04/25 03:45:35;;;;;;;14.30;12.77;;;;;;;;;;5011574;28;20514;-76
2022/04/25 03:48:01;;;;;;;13.57;12.07;;;;;;;;;;4994094;28;20103;-77
2022/04/25 03:50:27;;;;;;;13.65;12.25;;;;;;;;;;5011776;28;20418;-77
2022/04/25 03:52:53;;;;;;;14.13;12.80;;;;;;;;;;5011841;28;20104;-79
2022/04/25 03:58:04;;;;;;;13.43;12.07;;;;;;;;;;5010864;28;20467;-77
2022/04/25 04:00:30;;;;;;;15.70;11.55;;;;;;;;;;5010962;28;20514;-78
2022/04/25 04:02:59;;;;;;;12.80;11.60;;;;;;;;;;5009566;28;20048;-78
2022/04/25 04:05:26;;;;;;;11.95;10.85;;;;;;;;;;4985448;28;20046;-81
2022/04/25 04:07:52;;;;;;;10.68;9.68;;;;;;;;;;5011219;28;20045;-81
2022/04/25 04:10:18;;;;;;;9.48;8.57;;;;;;;;;;4994606;28;20042;-79
2022/04/25 04:12:47;;;;;;;13.15;10.02;;;;;;;;;;4993632;28;20037;-81
2022/04/25 04:15:13;;;;;;;10.57;9.65;;;;;;;;;;4967686;28;20058;-80
2022/04/25 04:17:39;;;;;;;9.60;8.77;;;;;;;;;;4973667;28;20034;-79
2022/04/25 04:20:06;;;;;;;11.30;8.90;;;;;;;;;;4991349;28;20068;-81
2022/04/25 04:22:32;;;;;;;9.48;8.68;;;;;;;;;;4991818;28;20467;-80
2022/04/25 04:25:12;;;;;;;10.07;9.27;;;;;;;;;;4993909;28;20098;-83
2022/04/25 04:27:38;;;;;;;12.60;8.48;;;;;;;;;;5001061;28;20090;-83
2022/04/25 04:30:06;;;;;;;9.98;9.10;;;;;;;;;;4965419;28;20486;-82
2022/04/25 04:32:32;;;;;;;11.40;9.10;;;;;;;;;;4994137;28;20042;-82
2022/04/25 04:34:58;;;;;;;9.27;8.43;;;;;;;;;;4975261;28;20279;-81
2022/04/25 04:37:25;;;;;;;11.05;9.45;;;;;;;;;;4975248;28;20101;-81
2022/04/25 04:40:27;;;;;;;9.35;8.55;;;;;;;;;;4975756;28;20042;-80
2022/04/25 04:42:37;;;;;;;10.23;9.18;;;;;;;;;;4990829;28;20102;-81
2022/04/25 04:45:03;;;;;;;8.63;7.93;;;;;;;;;;4991083;28;20046;-80
2022/04/25 04:47:33;;;;;;;8.23;7.53;;;;;;;;;;4990280;28;20058;-80
2022/04/25 04:49:58;;;;;;;8.15;7.57;;;;;;;;;;4973045;28;20050;-80
2022/04/25 04:52:25;;;;;;;7.63;7.03;;;;;;;;;;4989946;28;20038;-80
2022/04/25 04:54:51;;;;;;;7.68;6.95;;;;;;;;;;4990153;28;20611;-79
2022/04/25 04:57:17;;;;;;;6.38;5.97;;;;;;;;;;4972304;28;20052;-81
2022/04/25 04:59:43;;;;;;;8.98;7.65;;;;;;;;;;4972835;28;20077;-81
2022/04/25 05:02:09;;;;;;;7.22;6.72;;;;;;;;;;4972410;28;20046;-81
2022/04/25 05:04:34;;;;;;;8.73;5.93;;;;;;;;;;4972791;28;20086;-80
2022/04/25 05:07:00;;;;;;;7.00;6.20;;;;;;;;;;4989714;28;20538;-80
2022/04/25 05:09:26;;;;;;;7.70;7.10;;;;;;;;;;4972366;28;20049;-81
2022/04/25 05:11:52;;;;;;;6.60;6.00;;;;;;;;;;4972890;28;20543;-80
2022/04/25 05:14:18;;;;;;;5.60;5.30;;;;;;;;;;4992116;28;20585;-79
2022/04/25 05:16:44;;;;;;;6.40;5.80;;;;;;;;;;5010199;28;20081;-81
2022/04/25 05:19:10;;;;;;;6.90;6.40;;;;;;;;;;5008501;28;20545;-78
2022/04/25 05:21:37;;;;;;;6.20;5.70;;;;;;;;;;5010005;28;20038;-79
2022/04/25 05:24:03;;;;;;;6.03;5.53;;;;;;;;;;5008666;28;20053;-80
2022/04/25 05:26:29;;;;;;;6.00;5.60;;;;;;;;;;4992044;28;20057;-79
2022/04/25 05:28:57;;;;;;;5.95;5.40;;;;;;;;;;5008728;28;20091;-81
2022/04/25 05:31:23;;;;;;;6.20;5.35;;;;;;;;;;5009203;28;20425;-81
2022/04/25 05:33:49;;;;;;;7.13;6.53;;;;;;;;;;4993574;28;20041;-79
2022/04/25 05:36:15;;;;;;;6.13;5.53;;;;;;;;;;5010418;28;20053;-80
2022/04/25 05:38:41;;;;;;;7.70;7.10;;;;;;;;;;4992333;28;20037;-79
2022/04/25 05:41:09;;;;;;;6.80;6.20;;;;;;;;;;5010298;28;20327;-80
2022/04/25 05:43:39;;;;;;;6.97;6.47;;;;;;;;;;4976774;28;20072;-80
2022/04/25 05:46:05;;;;;;;6.78;6.00;;;;;;;;;;5010771;28;20057;-79
2022/04/25 05:54:00;;;;;;;5.93;5.32;;;;;;;;;;5018730;28;20042;-82
2022/04/25 05:56:27;;;;;;;5.50;5.00;;;;;;;;;;5014910;28;20108;-85
2022/04/25 05:58:53;;;;;;;6.03;5.53;;;;;;;;;;4977061;28;20034;-85
2022/04/25 06:01:19;;;;;;;5.75;5.32;;;;;;;;;;4996801;28;20057;-75
2022/04/25 06:03:45;;;;;;;5.88;5.38;;;;;;;;;;5006277;28;20034;-75
2022/04/25 06:06:11;;;;;;;4.93;4.63;;;;;;;;;;5003296;28;20061;-76
2022/04/25 06:08:37;;;;;;;6.43;5.47;;;;;;;;;;5003796;28;20038;-77
2022/04/25 06:11:03;;;;;;;6.78;5.88;;;;;;;;;;5008096;28;20045;-76
2022/04/25 06:13:29;;;;;;;5.45;5.05;;;;;;;;;;5012692;28;20038;-76
2022/04/25 06:15:55;;;;;;;7.13;6.53;;;;;;;;;;4999111;28;20530;-77
2022/04/25 06:18:22;;;;;;;6.82;6.22;;;;;;;;;;5027954;28;20053;-76
2022/04/25 06:20:50;;;;;;;7.00;6.45;;;;;;;;;;4996221;28;20388;-76
2022/04/25 06:23:16;;;;;;;6.72;6.13;;;;;;;;;;5007270;28;20125;-79
2022/04/25 06:25:42;;;;;;;5.30;4.82;;;;;;;;;;4999451;28;20053;-76
2022/04/25 06:28:07;;;;;;;6.40;5.90;;;;;;;;;;5027621;28;20049;-76
2022/04/25 06:30:33;;;;;;;7.03;6.40;;;;;;;;;;5011737;28;20033;-77
2022/04/25 06:32:59;;;;;;;5.47;4.97;;;;;;;;;;5009685;28;20077;-77
2022/04/25 06:35:26;;;;;;;6.47;6.00;;;;;;;;;;5023126;28;20049;-85
2022/04/25 06:37:52;;;;;;;7.63;6.90;;;;;;;;;;5013542;28;20044;-84
2022/04/25 06:40:18;;;;;;;6.82;6.28;;;;;;;;;;4997323;28;20042;-85
2022/04/25 06:42:44;;;;;;;7.97;6.60;;;;;;;;;;5013992;28;20042;-85
2022/04/25 06:45:10;;;;;;;7.85;7.13;;;;;;;;;;5022718;28;20525;-84
2022/04/25 06:47:36;;;;;;;6.88;5.97;;;;;;;;;;5013024;28;20053;-86
2022/04/25 06:50:02;;;;;;;6.40;5.95;;;;;;;;;;5011954;28;20068;-81
2022/04/25 06:52:28;;;;;;;6.72;6.22;;;;;;;;;;5017214;28;20053;-79
2022/04/25 06:54:54;;;;;;;6.78;6.28;;;;;;;;;;4996211;28;20045;-78
2022/04/25 06:57:20;;;;;;;8.20;6.65;;;;;;;;;;4983408;28;20042;-78
2022/04/25 06:59:46;;;;;;;5.82;5.43;;;;;;;;;;5011118;28;20025;-80
2022/04/25 07:02:13;;;;;;;6.90;6.22;;;;;;;;;;4992679;28;20683;-81
2022/04/25 07:04:39;;;;;;;6.65;6.05;;;;;;;;;;5026033;28;20053;-79
2022/04/25 07:07:05;;;;;;;5.63;5.32;;;;;;;;;;4993869;28;20065;-79
2022/04/25 07:09:31;;;;;;;5.30;4.90;;;;;;;;;;5010742;28;20415;-79
2022/04/25 07:11:56;;;;;;;6.95;6.25;;;;;;;;;;5008500;28;20056;-81
2022/04/25 07:14:23;;;;;;;7.88;5.90;;;;;;;;;;5002284;28;20044;-79
2022/04/25 07:16:49;;;;;;;6.53;6.03;;;;;;;;;;5006261;28;20058;-80
2022/04/25 07:19:15;;;;;;;6.03;5.20;;;;;;;;;;4994262;28;20045;-77
2022/04/25 07:29:54;;;;;;;6.30;5.70;;;;;;;;;;5009280;28;20045;-78
2022/04/25 07:32:20;;;;;;;5.93;5.35;;;;;;;;;;5008358;28;20422;-78
2022/04/25 07:34:47;;;;;;;6.47;4.70;;;;;;;;;;5008693;28;20038;-78
2022/04/25 07:37:13;;;;;;;5.38;4.70;;;;;;;;;;5008931;28;20041;-78
2022/04/25 07:39:39;;;;;;;4.90;4.47;;;;;;;;;;4992149;28;20664;-79
2022/04/25 07:42:05;;;;;;;5.13;4.75;;;;;;;;;;4992136;28;20229;-79
2022/04/25 07:44:31;;;;;;;5.00;4.70;;;;;;;;;;4992882;28;20042;-78
2022/04/25 07:46:58;;;;;;;6.47;4.47;;;;;;;;;;5011580;28;20064;-79
2022/04/25 07:49:24;;;;;;;4.97;4.55;;;;;;;;;;5010495;28;20065;-79
2022/04/25 07:51:50;;;;;;;4.82;4.38;;;;;;;;;;5010295;28;20053;-79
2022/04/25 07:54:18;;;;;;;4.70;4.40;;;;;;;;;;5011378;28;20052;-80
2022/04/25 07:56:45;;;;;;;5.32;4.78;;;;;;;;;;5011420;28;20050;-78
2022/04/25 07:59:11;;;;;;;4.80;4.50;;;;;;;;;;5011141;28;20046;-79
2022/04/25 08:01:37;;;;;;;9.07;4.50;;;;;;;;;;5011103;28;20596;-79
2022/04/25 08:04:02;;;;;;;4.85;4.50;;;;;;;;;;4993668;28;20049;-78
2022/04/25 08:06:28;;;;;;;5.80;5.30;;;;;;;;;;4993232;28;20125;-82
2022/04/25 08:08:55;;;;;;;4.45;4.15;;;;;;;;;;5007422;28;20042;-77
2022/04/25 08:11:20;;;;;;;6.10;3.67;;;;;;;;;;5011195;28;20042;-78
2022/04/25 08:19:16;;;;;;;7.53;4.63;;;;;;;;;;5011016;28;20041;-79
2022/04/25 08:21:44;;;;;;;5.28;4.32;;;;;;;;;;5010952;28;20045;-79
2022/04/25 08:24:11;;;;;;;5.15;4.50;;;;;;;;;;5009691;28;20037;-77
2022/04/25 08:26:37;;;;;;;4.95;4.57;;;;;;;;;;5010531;28;20049;-77
2022/04/25 08:29:03;;;;;;;4.10;3.80;;;;;;;;;;5008497;28;20574;-77
2022/04/25 08:31:29;;;;;;;6.50;4.53;;;;;;;;;;4992076;28;20061;-77
2022/04/25 08:33:56;;;;;;;6.50;5.07;;;;;;;;;;4992909;28;20038;-78
2022/04/25 08:36:22;;;;;;;5.05;4.53;;;;;;;;;;5010434;28;20062;-78
2022/04/25 08:38:48;;;;;;;5.07;4.57;;;;;;;;;;5010979;28;20037;-78
2022/04/25 08:41:15;;;;;;;5.05;4.75;;;;;;;;;;5010691;28;20536;-78
2022/04/25 08:43:41;;;;;;;5.50;5.00;;;;;;;;;;5010420;28;20042;-77
2022/04/25 08:46:08;;;;;;;5.72;5.18;;;;;;;;;;5009342;28;20132;-78
2022/04/25 08:48:34;;;;;;;5.40;4.93;;;;;;;;;;5008952;28;20046;-80
2022/04/25 08:51:00;;;;;;;4.72;4.13;;;;;;;;;;4993166;28;20429;-77
2022/04/25 08:53:26;;;;;;;4.68;4.38;;;;;;;;;;5009960;28;20048;-78
2022/04/25 08:55:54;;;;;;;5.47;5.07;;;;;;;;;;5021703;28;20132;-86
2022/04/25 08:58:20;;;;;;;5.63;5.13;;;;;;;;;;5034562;28;20099;-86
2022/04/25 09:00:45;;;;;;;5.20;4.70;;;;;;;;;;5034972;28;20565;-87
2022/04/25 09:03:14;;;;;;;5.32;4.63;;;;;;;;;;5019874;28;20041;-86
2022/04/25 09:05:40;;;;;;;5.82;5.07;;;;;;;;;;5032996;28;20048;-86
2022/04/25 09:08:07;;;;;;;4.80;4.22;;;;;;;;;;5030271;28;20026;-87
2022/04/25 09:10:33;;;;;;;5.03;4.38;;;;;;;;;;5031953;28;20030;-87
2022/04/25 09:12:59;;;;;;;5.30;4.15;;;;;;;;;;5034099;28;20081;-87
2022/04/25 09:15:25;;;;;;;4.43;4.13;;;;;;;;;;5034839;28;20053;-85
2022/04/25 09:17:53;;;;;;;6.85;5.25;;;;;;;;;;5036197;28;20097;-87
2022/04/25 09:20:20;;;;;;;5.32;4.95;;;;;;;;;;5015553;28;20053;-85
2022/04/25 09:22:47;;;;;;;5.28;4.95;;;;;;;;;;5028975;28;20564;-86
2022/04/25 09:25:13;;;;;;;5.28;4.88;;;;;;;;;;5035396;28;20037;-87
2022/04/25 09:27:39;;;;;;;7.15;4.85;;;;;;;;;;5030828;28;20041;-86
2022/04/25 09:30:21;;;;;;;5.30;5.00;;;;;;;;;;5043346;28;20029;-86
2022/04/25 09:32:48;;;;;;;5.40;5.00;;;;;;;;;;5018542;28;20030;-87
2022/04/25 09:35:32;;;;;;;5.82;5.38;;;;;;;;;;5033528;28;20033;-86
2022/04/25 09:38:00;;;;;;;5.07;4.68;;;;;;;;;;5030989;28;20038;-86
2022/04/25 09:40:29;;;;;;;5.60;5.05;;;;;;;;;;5033270;28;20049;-86
2022/04/25 09:43:08;;;;;;;7.13;4.85;;;;;;;;;;5032760;28;20089;-86
2022/04/25 09:45:34;;;;;;;5.50;5.10;;;;;;;;;;5028598;28;20050;-86
2022/04/25 09:48:00;;;;;;;5.10;4.80;;;;;;;;;;5033465;28;20042;-87
2022/04/25 09:50:29;;;;;;;5.05;4.65;;;;;;;;;;5030607;28;20041;-76
2022/04/25 09:52:55;;;;;;;5.55;5.05;;;;;;;;;;5012190;28;20136;-76
2022/04/25 09:55:22;;;;;;;4.05;3.83;;;;;;;;;;5009379;28;20048;-74
2022/04/25 09:57:50;;;;;;;4.72;4.43;;;;;;;;;;4995610;28;20089;-75
2022/04/25 10:00:30;;;;;;;5.45;4.60;;;;;;;;;;4996015;28;20044;-75
2022/04/25 10:02:57;;;;;;;5.63;4.95;;;;;;;;;;4995309;28;20140;-74
2022/04/25 10:05:24;;;;;;;5.35;4.90;;;;;;;;;;4999428;28;20061;-74
2022/04/25 10:07:50;;;;;;;4.85;4.45;;;;;;;;;;4992467;28;20418;-74
2022/04/25 10:10:17;;;;;;;5.50;5.00;;;;;;;;;;5009681;28;20045;-74
2022/04/25 10:12:43;;;;;;;4.30;3.92;;;;;;;;;;5012346;28;20092;-74
2022/04/25 10:15:09;;;;;;;5.25;4.85;;;;;;;;;;5010355;28;20545;-74
2022/04/25 10:17:36;;;;;;;5.03;4.63;;;;;;;;;;5009796;28;20401;-74
2022/04/25 10:20:02;;;;;;;4.80;4.47;;;;;;;;;;5012170;28;20042;-74
2022/04/25 10:22:28;;;;;;;7.10;5.35;;;;;;;;;;5008115;28;20049;-75
2022/04/25 10:24:54;;;;;;;5.45;4.97;;;;;;;;;;5001294;28;20451;-76
2022/04/25 10:27:27;;;;;;;4.60;4.20;;;;;;;;;;5003639;28;20093;-75
2022/04/25 10:29:53;;;;;;;6.47;4.65;;;;;;;;;;5011110;28;20034;-75
2022/04/25 10:32:23;;;;;;;5.13;4.82;;;;;;;;;;5009638;28;20042;-75
2022/04/25 10:34:54;;;;;;;4.83;4.40;;;;;;;;;;5012389;28;20129;-74
2022/04/25 10:37:29;;;;;;;4.40;4.13;;;;;;;;;;5011482;28;20041;-73
2022/04/25 10:39:56;;;;;;;8.80;4.60;;;;;;;;;;4992162;28;20708;-75
2022/04/25 10:45:06;;;;;;;4.93;4.53;;;;;;;;;;5009224;28;20065;-75
2022/04/25 10:47:33;;;;;;;4.47;4.18;;;;;;;;;;5025547;28;20060;-73
2022/04/25 10:49:59;;;;;;;5.88;4.43;;;;;;;;;;4997343;28;20045;-74
2022/04/25 10:52:54;;;;;;;4.15;3.70;;;;;;;;;;5030994;28;20045;-75
2022/04/25 10:55:19;;;;;;;5.07;4.68;;;;;;;;;;5030853;28;20038;-75
2022/04/25 10:58:07;;;;;;;4.63;4.25;;;;;;;;;;4998455;28;20045;-74
2022/04/25 11:00:45;;;;;;;4.68;4.25;;;;;;;;;;4993681;28;20053;-75
2022/04/25 11:03:16;;;;;;;4.90;4.60;;;;;;;;;;5002993;28;20052;-74
2022/04/25 11:05:45;;;;;;;4.95;4.45;;;;;;;;;;4998248;28;20038;-74
2022/04/25 11:08:21;;;;;;;6.82;5.10;;;;;;;;;;5010196;28;20049;-74
2022/04/25 11:10:47;;;;;;;5.13;4.72;;;;;;;;;;5010958;28;20041;-74
2022/04/25 11:13:14;;;;;;;6.10;5.50;;;;;;;;;;5011621;28;20666;-76
2022/04/25 11:15:46;;;;;;;8.60;4.50;;;;;;;;;;5011002;28;20151;-75
2022/04/25 11:18:37;;;;;;;6.13;3.85;;;;;;;;;;4993773;28;20052;-74
2022/04/25 11:21:07;;;;;;;;;;;;;;;;;;5000211;28;20058;-74
2022/04/25 11:23:33;;;;;;;4.72;4.43;;;;;;;;;;5003194;28;20399;-75
2022/04/25 11:26:04;;;;;;;5.45;5.05;;;;;;;;;;4995538;28;20145;-74
2022/04/25 11:28:30;;;;;;;4.40;4.00;;;;;;;;;;5010714;28;20053;-74
2022/04/25 11:31:15;;;;;;;4.50;4.20;;;;;;;;;;5010605;28;20052;-73
2022/04/25 11:33:41;;;;;;;4.45;4.15;;;;;;;;;;5010115;28;20418;-72
2022/04/25 11:36:07;;;;;;;4.28;3.97;;;;;;;;;;5010585;28;20077;-72
2022/04/25 11:41:25;;;;;;;3.75;3.45;;;;;;;;;;4996985;28;20049;-73
2022/04/25 11:43:51;;;;;;;3.72;3.40;;;;;;;;;;4994245;28;20046;-73
2022/04/25 11:46:17;;;;;;;5.10;3.83;;;;;;;;;;5011794;28;20046;-73
2022/04/25 11:48:47;;;;;;;3.70;3.40;;;;;;;;;;5008943;28;20556;-73
2022/04/25 11:51:16;;;;;;;6.00;4.30;;;;;;;;;;5009990;28;20049;-72
2022/04/25 11:53:41;;;;;;;3.75;3.45;;;;;;;;;;5009676;28;20197;-73
2022/04/25 11:56:16;;;;;;;3.78;3.55;;;;;;;;;;5009360;28;20119;-72
2022/04/25 11:58:42;;;;;;;3.80;3.60;;;;;;;;;;5019366;28;20085;-72
2022/04/25 12:01:11;;;;;;;3.50;3.30;;;;;;;;;;5015120;28;20060;-73
2022/04/25 12:03:37;;;;;;;3.72;3.53;;;;;;;;;;5012642;28;20037;-73
2022/04/25 12:06:12;;;;;;;3.60;3.40;;;;;;;;;;5010793;28;20498;-71
2022/04/25 12:16:54;;;;;;;3.25;3.05;;;;;;;;;;5004145;28;20057;-71
2022/04/25 12:19:21;;;;;;;3.33;3.00;;;;;;;;;;5006470;28;20041;-71
2022/04/25 12:21:51;;;;;;;3.55;3.20;;;;;;;;;;5010123;28;20054;-73
2022/04/25 12:24:18;;;;;;;4.10;3.20;;;;;;;;;;4991415;28;20684;-72
2022/04/25 12:26:43;;;;;;;3.20;3.00;;;;;;;;;;5004050;28;20085;-71
2022/04/25 12:29:11;;;;;;;3.05;2.85;;;;;;;;;;4999232;28;20077;-72
2022/04/25 12:31:45;;;;;;;3.00;2.90;;;;;;;;;;4990142;28;20046;-72
2022/04/25 12:34:12;;;;;;;3.20;3.00;;;;;;;;;;4990365;28;20074;-71
2022/04/25 12:36:39;;;;;;;3.20;3.10;;;;;;;;;;4991935;28;20048;-71
2022/04/25 12:39:09;;;;;;;4.28;3.28;;;;;;;;;;4992863;28;20065;-72
2022/04/25 12:41:35;;;;;;;3.20;3.00;;;;;;;;;;5009902;28;20052;-72
2022/04/25 12:44:10;;;;;;;3.47;3.28;;;;;;;;;;5009525;28;20284;-71
2022/04/25 12:46:39;;;;;;;4.00;3.55;;;;;;;;;;4989708;28;20057;-72
2022/04/25 12:49:08;;;;;;;3.63;3.42;;;;;;;;;;5007844;28;20038;-72
2022/04/25 12:51:34;;;;;;;3.65;3.38;;;;;;;;;;5005524;28;20042;-71
2022/04/25 12:54:01;;;;;;;3.53;3.30;;;;;;;;;;4990406;28;20064;-72
2022/04/25 12:56:30;;;;;;;3.58;3.20;;;;;;;;;;5006986;28;20506;-72
2022/04/25 12:58:56;;;;;;;3.05;2.85;;;;;;;;;;5009177;28;20072;-71
2022/04/25 13:01:32;;;;;;;3.55;3.35;;;;;;;;;;5007870;28;20042;-71
2022/04/25 13:04:04;;;;;;;3.47;3.28;;;;;;;;;;5009991;28;20080;-71
2022/04/25 13:06:30;;;;;;;3.10;2.90;;;;;;;;;;5006239;28;20653;-72
2022/04/25 13:08:56;;;;;;;3.72;3.25;;;;;;;;;;4991346;28;20034;-70
2022/04/25 13:11:22;;;;;;;3.65;3.45;;;;;;;;;;5008953;28;20049;-69
2022/04/25 13:13:50;;;;;;;3.70;3.40;;;;;;;;;;5009982;28;20069;-71
2022/04/25 13:16:17;;;;;;;3.30;3.10;;;;;;;;;;5008663;28;20053;-71
2022/04/25 13:18:44;;;;;;;3.90;3.25;;;;;;;;;;4991303;28;20053;-71
2022/04/25 13:21:13;;;;;;;5.50;3.28;;;;;;;;;;5006162;28;20100;-71
2022/04/25 13:23:39;;;;;;;3.20;2.90;;;;;;;;;;5008279;28;20033;-70
2022/04/25 13:26:05;;;;;;;5.90;3.40;;;;;;;;;;4989859;28;20054;-71
2022/04/25 13:28:31;;;;;;;3.30;3.10;;;;;;;;;;4990976;28;20041;-71
2022/04/25 13:30:56;;;;;;;2.92;2.83;;;;;;;;;;5008256;28;20046;-72
2022/04/25 13:33:22;;;;;;;3.38;3.17;;;;;;;;;;4991191;28;20528;-70
2022/04/25 13:35:48;;;;;;;3.60;3.33;;;;;;;;;;4989355;28;20576;-71
2022/04/25 13:38:14;;;;;;;4.07;3.78;;;;;;;;;;5007607;28;20042;-71
2022/04/25 13:40:40;;;;;;;4.65;4.35;;;;;;;;;;5006346;28;20441;-71
2022/04/25 13:43:09;;;;;;;4.00;3.78;;;;;;;;;;5008531;28;20057;-70
2022/04/25 13:45:34;;;;;;;4.57;3.70;;;;;;;;;;5006297;28;20054;-71
2022/04/25 13:48:00;;;;;;;3.88;3.58;;;;;;;;;;5008420;28;20049;-71
2022/04/25 13:50:26;;;;;;;5.70;3.67;;;;;;;;;;5006847;28;20030;-71
2022/04/25 13:52:53;;;;;;;4.43;3.58;;;;;;;;;;5008487;28;20049;-71
2022/04/25 13:55:19;;;;;;;4.07;3.60;;;;;;;;;;5008246;28;20041;-71
2022/04/25 13:57:48;;;;;;;4.03;3.83;;;;;;;;;;4990781;28;20050;-71
2022/04/25 14:00:14;;;;;;;3.85;3.65;;;;;;;;;;5008167;28;20502;-71
2022/04/25 14:05:25;;;;;;;3.80;3.50;;;;;;;;;;5007444;28;20069;-71
2022/04/25 14:07:51;;;;;;;6.07;3.95;;;;;;;;;;5008049;28;20468;-71
2022/04/25 14:10:17;;;;;;;3.90;3.60;;;;;;;;;;5006349;28;20026;-71
2022/04/25 14:12:43;;;;;;;5.60;3.88;;;;;;;;;;4990628;28;20417;-72
2022/04/25 14:15:09;;;;;;;4.43;4.00;;;;;;;;;;5009195;28;20042;-71
2022/04/25 14:17:35;;;;;;;4.20;3.25;;;;;;;;;;5007921;28;20125;-71
2022/04/25 14:20:02;;;;;;;3.95;3.65;;;;;;;;;;4990300;28;20622;-72
2022/04/25 14:22:29;;;;;;;4.80;3.20;;;;;;;;;;5006004;28;20038;-73
2022/04/25 14:24:55;;;;;;;3.25;2.95;;;;;;;;;;5007600;28;20042;-73
2022/04/25 14:27:20;;;;;;;6.05;3.33;;;;;;;;;;5007594;28;20140;-72
2022/04/25 14:29:46;;;;;;;3.50;3.22;;;;;;;;;;5010511;28;20410;-72
2022/04/25 14:32:13;;;;;;;5.20;3.20;;;;;;;;;;5013804;28;20050;-72
2022/04/25 14:34:39;;;;;;;4.00;3.00;;;;;;;;;;5009797;28;20042;-72
2022/04/25 14:37:05;;;;;;;6.82;3.17;;;;;;;;;;5012082;28;20072;-72
2022/04/25 14:39:33;;;;;;;3.78;3.47;;;;;;;;;;5004832;28;20068;-74
2022/04/25 14:41:59;;;;;;;3.40;3.20;;;;;;;;;;5008902;28;20077;-76
2022/04/25 14:44:27;;;;;;;3.75;3.40;;;;;;;;;;5011294;28;20073;-73
2022/04/25 14:46:54;;;;;;;8.23;5.78;;;;;;;;;;5011702;28;20052;-74
2022/04/25 14:54:20;;;;;;;11.93;6.13;;;;;;;;;;5005383;28;20060;-74
2022/04/25 14:54:51;;;;;;;6.75;4.05;;;;;;;;;;5031298;28;20044;-74
2022/04/25 14:57:17;;;;;;;5.13;4.47;;;;;;;;;;5013033;28;20041;-74
2022/04/25 14:59:43;;;;;;;5.70;4.63;;;;;;;;;;5011455;28;20038;-76
2022/04/25 15:02:09;;;;;;;4.85;4.43;;;;;;;;;;4992423;28;20132;-77
2022/04/25 15:04:36;;;;;;;5.10;4.70;;;;;;;;;;5010116;28;20562;-77
2022/04/25 15:07:02;;;;;;;5.97;4.57;;;;;;;;;;5011075;28;20050;-76
2022/04/25 15:09:29;;;;;;;5.22;4.72;;;;;;;;;;5008583;28;20042;-76
2022/04/25 15:11:56;;;;;;;5.50;4.32;;;;;;;;;;5010928;28;20030;-76
2022/04/25 15:14:23;;;;;;;9.25;4.55;;;;;;;;;;4992495;28;20037;-76
2022/04/25 15:16:49;;;;;;;4.53;4.20;;;;;;;;;;5008498;28;20049;-76
2022/04/25 15:19:15;;;;;;;6.95;4.18;;;;;;;;;;5010280;28;20062;-74
2022/04/25 15:21:41;;;;;;;4.15;3.90;;;;;;;;;;4991915;28;20070;-76